createdAt,value
2022-12-24T00:02:23.216Z,99658.69
2022-12-24T00:05:25.949Z,99654.00
2022-12-24T00:08:28.195Z,99665.81
2022-12-24T00:11:31.078Z,99655.44
2022-12-24T00:14:33.676Z,99655.66
2022-12-24T00:17:36.454Z,99643.66
2022-12-24T00:20:38.882Z,99652.53
2022-12-24T00:23:41.786Z,99650.87
2022-12-24T00:26:44.007Z,99641.28
2022-12-24T00:29:47.124Z,99642.63
2022-12-24T00:32:49.425Z,99639.03
2022-12-24T00:35:53.344Z,99647.88
2022-12-24T00:38:55.712Z,99652.53
2022-12-24T00:41:58.548Z,99656.75
2022-12-24T00:45:00.829Z,99660.00
2022-12-24T00:48:03.626Z,99691.31
2022-12-24T00:51:05.912Z,99715.94
2022-12-24T00:54:09.193Z,99712.56
2022-12-24T00:57:11.409Z,99696.84
2022-12-24T01:00:16.015Z,99698.97
2022-12-24T01:03:18.296Z,99680.44
2022-12-24T01:06:22.138Z,99676.62
2022-12-24T01:09:24.355Z,99678.50
2022-12-24T01:12:27.339Z,99666.72
2022-12-24T01:15:29.808Z,99648.25
2022-12-24T01:18:32.926Z,99639.00
2022-12-24T01:21:35.155Z,99629.28
2022-12-24T01:24:37.773Z,99630.31
2022-12-24T01:27:40.183Z,99629.53
2022-12-24T01:30:43.868Z,99617.56
2022-12-24T01:33:48.861Z,99602.06
2022-12-24T01:36:51.500Z,99608.47
2022-12-24T01:40:13.777Z,99606.53
2022-12-24T01:43:24.442Z,99607.78
2022-12-24T01:46:32.118Z,99605.94
2022-12-24T01:49:37.656Z,99603.75
2022-12-24T01:52:40.082Z,99600.84
2022-12-24T01:55:43.747Z,99617.34
2022-12-24T01:58:50.867Z,99611.97
2022-12-24T02:01:53.905Z,99617.34
2022-12-24T02:05:03.032Z,99610.91
2022-12-24T02:08:06.203Z,99613.06
2022-12-24T02:11:20.611Z,99606.56
2022-12-24T02:14:29.281Z,99612.22
2022-12-24T02:17:46.802Z,99613.31
2022-12-24T02:21:07.424Z,99617.53
2022-12-24T02:24:54.935Z,99615.47
2022-12-24T02:28:09.282Z,99633.63
2022-12-24T02:31:29.720Z,99679.16
2022-12-24T02:34:46.502Z,99647.75
2022-12-24T02:38:44.529Z,99629.38
2022-12-24T02:42:08.141Z,99633.03
2022-12-24T02:45:15.962Z,99629.28
2022-12-24T02:48:20.637Z,99618.56
2022-12-24T02:51:24.725Z,99609.22
2022-12-24T02:54:27.465Z,99621.19
2022-12-24T02:57:48.899Z,99620.09
2022-12-24T03:01:16.235Z,99608.50
2022-12-24T03:04:40.832Z,99610.31
2022-12-24T03:08:08.214Z,99613.72
2022-12-24T03:11:15.278Z,99630.50
2022-12-24T03:14:18.574Z,99639.34
2022-12-24T03:17:21.615Z,99646.28
2022-12-24T03:20:31.263Z,99655.06
2022-12-24T03:23:35.010Z,99656.38
2022-12-24T03:26:39.105Z,99648.13
2022-12-24T03:29:42.479Z,99634.34
2022-12-24T03:32:46.322Z,99629.28
2022-12-24T03:35:48.871Z,99624.22
2022-12-24T03:38:51.105Z,99607.13
2022-12-24T03:41:53.594Z,99608.22
2022-12-24T03:44:55.800Z,99624.34
2022-12-24T03:47:58.503Z,99630.28
2022-12-24T03:51:00.916Z,99634.78
2022-12-24T03:54:03.496Z,99643.59
2022-12-24T03:57:05.700Z,99658.06
2022-12-24T04:00:08.919Z,99642.25
2022-12-24T04:03:14.001Z,99646.44
2022-12-24T04:06:17.996Z,99644.50
2022-12-24T04:09:20.188Z,99642.19
2022-12-24T04:12:22.844Z,99660.72
2022-12-24T04:15:25.170Z,99651.88
2022-12-24T04:18:28.739Z,99640.34
2022-12-24T04:21:30.997Z,99646.53
2022-12-24T04:24:33.779Z,99655.78
2022-12-24T04:27:35.975Z,99666.37
2022-12-24T04:30:39.268Z,99662.78
2022-12-24T04:33:41.718Z,99666.00
2022-12-24T04:36:44.275Z,99666.37
2022-12-24T04:39:46.438Z,99662.78
2022-12-24T04:42:50.428Z,99653.69
2022-12-24T04:45:52.807Z,99657.16
2022-12-24T04:48:55.441Z,99658.34
2022-12-24T04:51:57.722Z,99658.28
2022-12-24T04:55:00.252Z,99655.28
2022-12-24T04:58:02.532Z,99647.34
2022-12-24T05:01:07.362Z,99654.09
2022-12-24T05:04:11.156Z,99675.28
2022-12-24T05:07:13.709Z,99674.38
2022-12-24T05:10:15.974Z,99676.53
2022-12-24T05:13:19.076Z,99673.75
2022-12-24T05:16:23.444Z,99676.75
2022-12-24T05:19:26.080Z,99679.41
2022-12-24T05:22:47.034Z,99687.06
2022-12-24T05:26:07.812Z,99679.06
2022-12-24T05:29:14.592Z,99683.31
2022-12-24T05:32:17.147Z,99685.22
2022-12-24T05:35:19.360Z,99694.63
2022-12-24T05:38:21.916Z,99691.38
2022-12-24T05:41:24.953Z,99701.00
2022-12-24T05:44:27.776Z,99699.56
2022-12-24T05:47:30.293Z,99697.41
2022-12-24T05:50:32.976Z,99691.16
2022-12-24T05:53:40.351Z,99689.56
2022-12-24T05:56:42.996Z,99693.56
2022-12-24T05:59:45.367Z,99697.31
2022-12-24T06:02:48.062Z,99704.00
2022-12-24T06:06:19.365Z,99697.78
2022-12-24T06:09:21.919Z,99697.91
2022-12-24T06:12:24.489Z,99698.13
2022-12-24T06:15:26.718Z,99701.31
2022-12-24T06:18:30.953Z,99716.09
2022-12-24T06:21:33.181Z,99720.97
2022-12-24T06:24:35.720Z,99712.41
2022-12-24T06:27:37.884Z,99724.81
2022-12-24T06:30:41.338Z,99719.37
2022-12-24T06:33:44.096Z,99736.50
2022-12-24T06:36:46.691Z,99726.78
2022-12-24T06:39:48.883Z,99733.16
2022-12-24T06:42:51.429Z,99738.31
2022-12-24T06:45:53.731Z,99748.47
2022-12-24T06:48:56.216Z,99754.69
2022-12-24T06:51:58.340Z,99757.44
2022-12-24T06:55:00.871Z,99771.22
2022-12-24T06:58:03.523Z,99772.44
2022-12-24T07:01:07.675Z,99770.44
2022-12-24T07:04:14.530Z,99775.00
2022-12-24T07:07:20.558Z,99769.62
2022-12-24T07:10:23.239Z,99778.28
2022-12-24T07:13:25.936Z,99781.50
2022-12-24T07:16:28.241Z,99783.03
2022-12-24T07:19:31.035Z,99769.72
2022-12-24T07:22:33.357Z,99771.22
2022-12-24T07:25:36.139Z,99778.00
2022-12-24T07:28:38.362Z,99773.66
2022-12-24T07:31:40.959Z,99772.06
2022-12-24T07:34:43.201Z,99784.53
2022-12-24T07:37:45.803Z,99786.34
2022-12-24T07:40:48.586Z,99793.69
2022-12-24T07:43:51.104Z,99801.97
2022-12-24T07:46:53.392Z,99805.06
2022-12-24T07:49:56.010Z,99803.37
2022-12-24T07:52:58.258Z,99816.13
2022-12-24T07:56:01.165Z,99820.72
2022-12-24T07:59:03.427Z,99823.41
2022-12-24T08:02:06.151Z,99828.16
2022-12-24T08:05:09.088Z,99823.09
2022-12-24T08:08:11.310Z,99822.09
2022-12-24T08:11:14.494Z,99828.03
2022-12-24T08:14:16.687Z,99841.75
2022-12-24T08:17:19.113Z,99852.50
2022-12-24T08:20:21.475Z,99853.06
2022-12-24T08:23:24.377Z,99860.09
2022-12-24T08:26:26.652Z,99875.22
2022-12-24T08:29:29.367Z,99884.88
2022-12-24T08:32:32.029Z,99896.81
2022-12-24T08:35:34.635Z,99898.06
2022-12-24T08:38:36.860Z,99899.34
2022-12-24T08:41:40.294Z,99918.91
2022-12-24T08:44:42.486Z,99912.16
2022-12-24T08:47:45.140Z,99906.38
2022-12-24T08:50:47.514Z,99920.53
2022-12-24T08:53:50.491Z,99930.63
2022-12-24T08:56:52.746Z,99929.19
2022-12-24T08:59:55.236Z,99942.41
2022-12-24T09:02:57.891Z,99940.97
2022-12-24T09:06:03.920Z,99934.94
2022-12-24T09:09:06.440Z,99937.50
2022-12-24T09:12:10.041Z,99932.87
2022-12-24T09:15:14.329Z,99940.72
2022-12-24T09:18:16.885Z,99944.16
2022-12-24T09:21:19.146Z,99951.62
2022-12-24T09:24:22.046Z,99956.41
2022-12-24T09:27:24.178Z,99962.66
2022-12-24T09:30:26.659Z,99963.94
2022-12-24T09:33:31.349Z,99964.56
2022-12-24T09:36:34.595Z,99975.34
2022-12-24T09:39:36.808Z,99965.50
2022-12-24T09:42:57.572Z,99979.53
2022-12-24T09:46:27.768Z,99979.91
2022-12-24T09:49:45.136Z,99974.22
2022-12-24T09:52:48.578Z,99978.72
2022-12-24T09:55:56.287Z,99970.28
2022-12-24T09:59:01.653Z,99968.09
2022-12-24T10:02:11.548Z,99969.69
2022-12-24T10:05:15.772Z,99979.72
2022-12-24T10:08:39.533Z,99983.41
2022-12-24T10:11:53.827Z,99995.00
2022-12-24T10:15:14.076Z,99997.44
2022-12-24T10:18:29.852Z,100000.78
2022-12-24T10:21:47.665Z,100006.69
2022-12-24T10:25:13.690Z,100008.72
2022-12-24T10:28:18.697Z,99998.09
2022-12-24T10:31:35.689Z,99995.06
2022-12-24T10:35:06.317Z,99996.03
2022-12-24T10:38:09.293Z,100006.69
2022-12-24T10:41:13.101Z,100000.50
2022-12-24T10:44:18.979Z,100009.87
2022-12-24T10:47:22.690Z,100006.72
2022-12-24T10:50:39.536Z,100015.44
2022-12-24T10:53:49.353Z,100012.91
2022-12-24T10:56:57.072Z,100004.00
2022-12-24T11:00:00.017Z,100008.59
2022-12-24T11:03:11.544Z,100020.72
2022-12-24T11:06:21.092Z,100026.25
2022-12-24T11:09:30.107Z,100027.22
2022-12-24T11:12:35.427Z,100021.16
2022-12-24T11:15:38.093Z,100025.94
2022-12-24T11:18:51.133Z,100024.66
2022-12-24T11:22:22.452Z,100035.31
2022-12-24T11:25:31.670Z,100050.91
2022-12-24T11:28:34.249Z,100057.72
2022-12-24T11:31:37.935Z,100051.50
2022-12-24T11:34:43.547Z,100055.91
2022-12-24T11:37:45.762Z,100052.25
2022-12-24T11:40:51.044Z,100056.53
2022-12-24T11:44:03.727Z,100054.78
2022-12-24T11:47:13.870Z,100053.03
2022-12-24T11:50:22.194Z,100060.38
2022-12-24T11:53:30.739Z,100054.13
2022-12-24T11:56:49.913Z,100053.19
2022-12-24T11:59:52.565Z,100063.75
2022-12-24T12:02:58.163Z,100055.62
2022-12-24T12:06:04.256Z,100054.16
2022-12-24T12:09:13.181Z,100053.19
2022-12-24T12:12:22.087Z,100065.66
2022-12-24T12:15:37.609Z,100073.59
2022-12-24T12:18:47.087Z,100078.50
2022-12-24T12:21:49.886Z,100074.87
2022-12-24T12:24:55.921Z,100068.50
2022-12-24T12:28:00.399Z,100066.28
2022-12-24T12:31:15.467Z,100080.13
2022-12-24T12:34:43.793Z,100075.66
2022-12-24T12:37:58.829Z,100082.66
2022-12-24T12:41:12.213Z,100077.41
2022-12-24T12:44:41.242Z,100071.53
2022-12-24T12:47:46.008Z,100081.84
2022-12-24T12:51:00.689Z,100085.97
2022-12-24T12:54:35.510Z,100083.28
2022-12-24T12:57:40.014Z,100091.75
2022-12-24T13:00:46.196Z,100088.06
2022-12-24T13:04:14.258Z,100083.44
2022-12-24T13:07:38.011Z,100090.78
2022-12-24T13:11:02.095Z,100094.94
2022-12-24T13:14:22.562Z,100095.56
2022-12-24T13:17:34.912Z,100107.38
2022-12-24T13:20:46.580Z,100112.16
2022-12-24T13:23:49.755Z,100124.25
2022-12-24T13:27:15.638Z,100112.47
2022-12-24T13:30:40.933Z,100124.87
2022-12-24T13:33:43.047Z,100115.50
2022-12-24T13:37:19.275Z,100123.00
2022-12-24T13:40:26.875Z,100129.19
2022-12-24T13:44:04.692Z,100123.94
2022-12-24T13:47:13.024Z,100128.59
2022-12-24T13:50:24.367Z,100132.37
2022-12-24T13:53:41.518Z,100137.16
2022-12-24T13:56:44.054Z,100147.19
2022-12-24T13:59:46.810Z,100149.41
2022-12-24T14:02:58.939Z,100151.19
2022-12-24T14:06:08.323Z,100147.06
2022-12-24T14:09:16.160Z,100155.97
2022-12-24T14:12:49.706Z,100157.25
2022-12-24T14:15:55.020Z,100165.22
2022-12-24T14:19:20.983Z,100169.53
2022-12-24T14:22:23.100Z,100171.28
2022-12-24T14:25:25.810Z,100172.72
2022-12-24T14:28:44.073Z,100173.66
2022-12-24T14:31:55.742Z,100184.34
2022-12-24T14:35:07.046Z,100184.34
2022-12-24T14:38:18.577Z,100194.53
2022-12-24T14:41:23.832Z,100205.19
2022-12-24T14:44:37.576Z,100214.44
2022-12-24T14:47:58.898Z,100223.03
2022-12-24T14:51:30.441Z,100222.06
2022-12-24T14:54:40.198Z,100230.31
2022-12-24T14:57:42.615Z,100228.88
2022-12-24T15:00:44.945Z,100234.31
2022-12-24T15:04:19.865Z,100236.84
2022-12-24T15:07:22.081Z,100244.91
2022-12-24T15:10:35.000Z,100244.44
2022-12-24T15:13:42.907Z,100238.53
2022-12-24T15:16:57.936Z,100240.72
2022-12-24T15:20:01.799Z,100248.31
2022-12-24T15:23:05.155Z,100252.75
2022-12-24T15:26:27.994Z,100260.44
2022-12-24T15:29:33.280Z,100266.75
2022-12-24T15:32:35.494Z,100271.34
2022-12-24T15:35:49.438Z,100273.84
2022-12-24T15:38:54.986Z,100274.53
2022-12-24T15:42:16.059Z,100272.59
2022-12-24T15:45:27.547Z,100288.50
2022-12-24T15:48:32.588Z,100295.94
2022-12-24T15:51:40.425Z,100273.94
2022-12-24T15:54:45.616Z,100284.00
2022-12-24T15:57:47.872Z,100278.88
2022-12-24T16:01:02.469Z,100294.56
2022-12-24T16:04:14.240Z,100297.44
2022-12-24T16:07:46.855Z,100293.25
2022-12-24T16:11:11.148Z,100306.25
2022-12-24T16:14:19.459Z,100311.56
2022-12-24T16:17:24.483Z,100308.50
2022-12-24T16:20:26.767Z,100305.81
2022-12-24T16:23:50.708Z,100314.34
2022-12-24T16:26:53.873Z,100313.59
2022-12-24T16:29:56.357Z,100310.88
2022-12-24T16:32:58.630Z,100309.94
2022-12-24T16:36:01.118Z,100309.16
2022-12-24T16:39:22.321Z,100306.81
2022-12-24T16:42:43.205Z,100301.63
2022-12-24T16:45:47.098Z,100304.13
2022-12-24T16:48:49.618Z,100309.53
2022-12-24T16:51:52.094Z,100308.03
2022-12-24T16:54:56.083Z,100329.00
2022-12-24T16:57:58.347Z,100332.78
2022-12-24T17:01:06.619Z,100324.06
2022-12-24T17:04:08.933Z,100336.50
2022-12-24T17:07:13.566Z,100349.41
2022-12-24T17:10:15.803Z,100351.59
2022-12-24T17:13:18.305Z,100351.72
2022-12-24T17:16:20.610Z,100351.44
2022-12-24T17:19:23.206Z,100350.62
2022-12-24T17:22:27.681Z,100351.94
2022-12-24T17:25:30.157Z,100351.31
2022-12-24T17:28:32.299Z,100349.25
2022-12-24T17:31:35.076Z,100357.03
2022-12-24T17:34:37.672Z,100364.81
2022-12-24T17:37:40.068Z,100364.03
2022-12-24T17:40:42.258Z,100365.44
2022-12-24T17:43:45.118Z,100373.25
2022-12-24T17:46:47.364Z,100381.72
2022-12-24T17:49:49.873Z,100377.72
2022-12-24T17:52:52.054Z,100375.63
2022-12-24T17:55:54.550Z,100388.91
2022-12-24T17:58:57.964Z,100387.84
2022-12-24T18:02:00.649Z,100384.94
2022-12-24T18:05:04.407Z,100387.44
2022-12-24T18:08:06.597Z,100381.22
2022-12-24T18:11:16.286Z,100394.31
2022-12-24T18:14:18.464Z,100402.50
2022-12-24T18:17:22.371Z,100405.47
2022-12-24T18:20:24.768Z,100411.34
2022-12-24T18:23:27.201Z,100418.47
2022-12-24T18:26:31.190Z,100411.97
2022-12-24T18:29:33.719Z,100407.19
2022-12-24T18:32:36.623Z,100412.78
2022-12-24T18:35:39.636Z,100413.37
2022-12-24T18:38:42.178Z,100413.00
2022-12-24T18:41:44.713Z,100426.44
2022-12-24T18:44:46.981Z,100430.13
2022-12-24T18:47:49.538Z,100435.69
2022-12-24T18:50:57.484Z,100441.50
2022-12-24T18:54:00.179Z,100447.19
2022-12-24T18:57:02.533Z,100444.97
2022-12-24T19:00:05.500Z,100439.66
2022-12-24T19:03:08.177Z,100435.38
2022-12-24T19:06:11.671Z,100431.59
2022-12-24T19:09:13.877Z,100446.94
2022-12-24T19:12:16.335Z,100443.53
2022-12-24T19:15:18.744Z,100442.50
2022-12-24T19:18:21.277Z,100444.00
2022-12-24T19:21:23.824Z,100452.88
2022-12-24T19:24:26.356Z,100459.62
2022-12-24T19:27:28.555Z,100471.69
2022-12-24T19:30:30.989Z,100474.47
2022-12-24T19:33:49.139Z,100470.47
2022-12-24T19:36:52.798Z,100459.41
2022-12-24T19:39:54.969Z,100471.75
2022-12-24T19:42:58.152Z,100477.31
2022-12-24T19:46:00.315Z,100481.06
2022-12-24T19:49:06.516Z,100498.13
2022-12-24T19:52:08.695Z,100490.59
2022-12-24T19:55:12.004Z,100492.00
2022-12-24T19:58:14.197Z,100503.84
2022-12-24T20:01:22.447Z,100495.06
2022-12-24T20:04:25.165Z,100499.00
2022-12-24T20:07:27.373Z,100512.31
2022-12-24T20:10:29.866Z,100517.25
2022-12-24T20:13:33.427Z,100524.53
2022-12-24T20:16:36.040Z,100520.53
2022-12-24T20:19:38.489Z,100520.59
2022-12-24T20:22:41.051Z,100512.31
2022-12-24T20:25:43.194Z,100511.78
2022-12-24T20:28:46.103Z,100516.38
2022-12-24T20:31:48.288Z,100520.56
2022-12-24T20:34:50.767Z,100520.59
2022-12-24T20:37:52.918Z,100518.50
2022-12-24T20:40:57.003Z,100523.56
2022-12-24T20:44:00.858Z,100528.94
2022-12-24T20:47:03.463Z,100522.25
2022-12-24T20:50:06.452Z,100521.50
2022-12-24T20:53:09.271Z,100536.00
2022-12-24T20:56:12.885Z,100533.59
2022-12-24T20:59:15.450Z,100549.19
2022-12-24T21:02:18.025Z,100550.06
2022-12-24T21:05:20.682Z,100554.69
2022-12-24T21:08:23.224Z,100551.16
2022-12-24T21:11:44.693Z,100551.50
2022-12-24T21:14:46.715Z,100570.84
2022-12-24T21:17:49.154Z,100567.38
2022-12-24T21:20:54.813Z,100567.13
2022-12-24T21:23:57.586Z,100573.34
2022-12-24T21:26:59.780Z,100584.38
2022-12-24T21:30:06.083Z,100575.81
2022-12-24T21:33:08.268Z,100575.75
2022-12-24T21:36:12.362Z,100587.28
2022-12-24T21:39:14.599Z,100589.75
2022-12-24T21:42:17.089Z,100580.88
2022-12-24T21:45:19.319Z,100585.69
2022-12-24T21:48:40.644Z,100589.47
2022-12-24T21:51:44.775Z,100592.94
2022-12-24T21:54:47.462Z,100579.53
2022-12-24T21:57:52.501Z,100581.38
2022-12-24T22:00:55.013Z,100574.16
2022-12-24T22:03:57.557Z,100588.66
2022-12-24T22:07:19.589Z,100577.13
2022-12-24T22:10:40.916Z,100589.25
2022-12-24T22:13:43.077Z,100596.75
2022-12-24T22:16:46.751Z,100606.69
2022-12-24T22:19:48.991Z,100614.75
2022-12-24T22:22:51.597Z,100602.13
2022-12-24T22:25:53.716Z,100600.00
2022-12-24T22:28:56.211Z,100598.41
2022-12-24T22:31:58.341Z,100604.28
2022-12-24T22:35:00.823Z,100598.62
2022-12-24T22:38:03.125Z,100599.97
2022-12-24T22:41:09.167Z,100601.59
2022-12-24T22:44:11.301Z,100595.44
2022-12-24T22:47:13.841Z,100595.94
2022-12-24T22:50:16.289Z,100605.59
2022-12-24T22:53:18.755Z,100604.53
2022-12-24T22:56:22.781Z,100607.47
2022-12-24T22:59:25.541Z,100606.94
2022-12-24T23:02:28.625Z,100597.28
2022-12-24T23:05:31.700Z,100609.87
2022-12-24T23:08:36.228Z,100625.69
2022-12-24T23:11:40.304Z,100630.22
2022-12-24T23:14:57.704Z,100629.44
2022-12-24T23:18:00.244Z,100638.56
2022-12-24T23:21:05.465Z,100614.44
2022-12-24T23:24:11.064Z,100592.97
2022-12-24T23:27:13.230Z,100592.47
2022-12-24T23:30:16.153Z,100605.56
2022-12-24T23:33:18.349Z,100615.78
2022-12-24T23:36:21.227Z,100615.50
2022-12-24T23:39:23.568Z,100623.00
2022-12-24T23:42:26.099Z,100622.97
2022-12-24T23:45:28.354Z,100627.28
2022-12-24T23:48:30.896Z,100631.31
2022-12-24T23:51:33.047Z,100643.09
2022-12-24T23:54:35.725Z,100633.72
2022-12-24T23:57:38.057Z,100629.72
